sensor_id;sensor_type;location;lat;lon;timestamp;pressure;altitude;pressure_sealevel;temperature;humidity
54122;BME280;40029;58.708;50.190;2023-04-19T00:01:57;101253.19;;;6.53;22.03
54122;BME280;40029;58.708;50.190;2023-04-19T00:04:29;101254.91;;;6.55;21.42
54122;BME280;40029;58.708;50.190;2023-04-19T00:07:00;101256.63;;;6.56;21.41
54122;BME280;40029;58.708;50.190;2023-04-19T00:09:32;101195.31;;;6.26;22.04
54122;BME280;40029;58.708;50.190;2023-04-19T00:12:04;101253.19;;;6.51;21.26
54122;BME280;40029;58.708;50.190;2023-04-19T00:14:35;101257.50;;;6.50;21.16
54122;BME280;40029;58.708;50.190;2023-04-19T00:17:06;101255.78;;;6.56;20.73
54122;BME280;40029;58.708;50.190;2023-04-19T00:19:37;101211.69;;;6.22;20.82
54122;BME280;40029;58.708;50.190;2023-04-19T00:22:08;101257.50;;;6.50;20.22
54122;BME280;40029;58.708;50.190;2023-04-19T00:24:39;101244.53;;;6.43;19.96
54122;BME280;40029;58.708;50.190;2023-04-19T00:27:10;101247.13;;;6.43;20.15
54122;BME280;40029;58.708;50.190;2023-04-19T00:29:43;101249.69;;;6.40;19.76
54122;BME280;40029;58.708;50.190;2023-04-19T00:32:37;101265.25;;;6.49;19.46
54122;BME280;40029;58.708;50.190;2023-04-19T00:35:08;101268.69;;;6.45;19.92
54122;BME280;40029;58.708;50.190;2023-04-19T00:37:40;101257.44;;;6.31;19.74
54122;BME280;40029;58.708;50.190;2023-04-19T00:40:11;101274.72;;;6.38;20.00
54122;BME280;40029;58.708;50.190;2023-04-19T00:42:42;101243.59;;;6.21;19.94
54122;BME280;40029;58.708;50.190;2023-04-19T00:45:16;101243.59;;;6.18;20.21
54122;BME280;40029;58.708;50.190;2023-04-19T00:47:47;101275.59;;;6.40;19.92
54122;BME280;40029;58.708;50.190;2023-04-19T00:50:19;101216.81;;;6.05;19.56
54122;BME280;40029;58.708;50.190;2023-04-19T00:53:09;101217.66;;;5.99;19.88
54122;BME280;40029;58.708;50.190;2023-04-19T00:55:41;101234.06;;;6.08;19.80
54122;BME280;40029;58.708;50.190;2023-04-19T00:58:14;101228.00;;;6.06;20.19
54122;BME280;40029;58.708;50.190;2023-04-19T01:00:45;101271.22;;;6.26;20.08
54122;BME280;40029;58.708;50.190;2023-04-19T01:03:17;101233.16;;;6.03;19.71
54122;BME280;40029;58.708;50.190;2023-04-19T01:06:06;101275.53;;;6.24;20.20
54122;BME280;40029;58.708;50.190;2023-04-19T01:08:37;101278.13;;;6.28;19.99
54122;BME280;40029;58.708;50.190;2023-04-19T01:11:09;101245.25;;;6.07;19.90
54122;BME280;40029;58.708;50.190;2023-04-19T01:13:41;101273.81;;;6.20;20.03
54122;BME280;40029;58.708;50.190;2023-04-19T01:16:12;101246.09;;;5.95;20.08
54122;BME280;40029;58.708;50.190;2023-04-19T01:18:43;101254.72;;;5.97;20.02
54122;BME280;40029;58.708;50.190;2023-04-19T01:21:14;101217.53;;;5.78;20.00
54122;BME280;40029;58.708;50.190;2023-04-19T01:23:47;101222.66;;;5.76;19.97
54122;BME280;40029;58.708;50.190;2023-04-19T01:26:20;101272.00;;;6.07;19.57
54122;BME280;40029;58.708;50.190;2023-04-19T01:28:51;101295.34;;;6.16;19.81
54122;BME280;40029;58.708;50.190;2023-04-19T01:31:22;101252.06;;;5.88;20.41
54122;BME280;40029;58.708;50.190;2023-04-19T01:33:53;101295.31;;;6.13;20.39
54122;BME280;40029;58.708;50.190;2023-04-19T01:36:25;101230.44;;;5.75;20.40
54122;BME280;40029;58.708;50.190;2023-04-19T01:38:57;101298.78;;;6.14;20.49
54122;BME280;40029;58.708;50.190;2023-04-19T01:41:47;101246.84;;;5.83;20.43
54122;BME280;40029;58.708;50.190;2023-04-19T01:44:18;101296.16;;;6.09;20.42
54122;BME280;40029;58.708;50.190;2023-04-19T01:46:50;101251.97;;;5.77;20.09
54122;BME280;40029;58.708;50.190;2023-04-19T01:49:21;101247.66;;;5.77;19.21
54122;BME280;40029;58.708;50.190;2023-04-19T01:51:53;101286.63;;;5.97;19.29
54122;BME280;40029;58.708;50.190;2023-04-19T01:54:24;101296.13;;;6.00;19.25
54122;BME280;40029;58.708;50.190;2023-04-19T01:57:15;101233.81;;;5.65;19.10
54122;BME280;40029;58.708;50.190;2023-04-19T01:59:46;101306.47;;;6.00;18.95
54122;BME280;40029;58.708;50.190;2023-04-19T02:02:17;101259.75;;;5.77;19.05
54122;BME280;40029;58.708;50.190;2023-04-19T02:05:07;101233.78;;;5.60;18.70
54122;BME280;40029;58.708;50.190;2023-04-19T02:07:38;101288.31;;;5.92;18.43
54122;BME280;40029;58.708;50.190;2023-04-19T02:10:10;101297.84;;;5.95;18.62
54122;BME280;40029;58.708;50.190;2023-04-19T02:12:42;101251.97;;;5.77;18.53
54122;BME280;40029;58.708;50.190;2023-04-19T02:15:16;101251.97;;;5.75;18.82
54122;BME280;40029;58.708;50.190;2023-04-19T02:18:26;101290.94;;;5.97;18.75
54122;BME280;40029;58.708;50.190;2023-04-19T02:21:00;101286.59;;;5.94;18.49
54122;BME280;40029;58.708;50.190;2023-04-19T02:23:31;101250.25;;;5.76;18.38
54122;BME280;40029;58.708;50.190;2023-04-19T02:26:04;101242.50;;;5.74;18.37
54122;BME280;40029;58.708;50.190;2023-04-19T02:28:35;101288.38;;;6.00;18.67
54122;BME280;40029;58.708;50.190;2023-04-19T02:31:07;101295.31;;;6.15;18.88
54122;BME280;40029;58.708;50.190;2023-04-19T02:33:39;101297.06;;;6.17;18.59
54122;BME280;40029;58.708;50.190;2023-04-19T02:36:10;101295.34;;;6.18;18.77
54122;BME280;40029;58.708;50.190;2023-04-19T02:38:42;101303.16;;;6.25;18.96
54122;BME280;40029;58.708;50.190;2023-04-19T02:41:13;101287.63;;;6.27;18.45
54122;BME280;40029;58.708;50.190;2023-04-19T02:43:45;101262.56;;;6.12;18.70
54122;BME280;40029;58.708;50.190;2023-04-19T02:46:17;101295.44;;;6.39;18.86
54122;BME280;40029;58.708;50.190;2023-04-19T02:48:48;101294.59;;;6.42;18.51
54122;BME280;40029;58.708;50.190;2023-04-19T02:51:19;101243.63;;;6.25;18.43
54122;BME280;40029;58.708;50.190;2023-04-19T02:53:50;101300.66;;;6.58;18.91
54122;BME280;40029;58.708;50.190;2023-04-19T02:56:21;101298.97;;;6.69;18.33
54122;BME280;40029;58.708;50.190;2023-04-19T02:58:53;101255.75;;;6.45;18.21
54122;BME280;40029;58.708;50.190;2023-04-19T03:01:24;101314.56;;;6.93;18.29
54122;BME280;40029;58.708;50.190;2023-04-19T03:03:56;101314.56;;;6.86;18.26
54122;BME280;40029;58.708;50.190;2023-04-19T03:06:27;101282.59;;;6.78;18.21
54122;BME280;40029;58.708;50.190;2023-04-19T03:08:59;101262.72;;;6.76;18.22
54122;BME280;40029;58.708;50.190;2023-04-19T03:11:31;101311.13;;;7.05;17.74
54122;BME280;40029;58.708;50.190;2023-04-19T03:14:03;101264.47;;;6.87;18.36
54122;BME280;40029;58.708;50.190;2023-04-19T03:16:52;101276.59;;;6.97;17.56
54122;BME280;40029;58.708;50.190;2023-04-19T03:19:24;101323.25;;;7.32;17.63
54122;BME280;40029;58.708;50.190;2023-04-19T03:21:56;101326.72;;;7.43;17.90
54122;BME280;40029;58.708;50.190;2023-04-19T03:24:28;101272.25;;;7.23;17.99
54122;BME280;40029;58.708;50.190;2023-04-19T03:27:02;101304.22;;;7.53;17.69
54122;BME280;40029;58.708;50.190;2023-04-19T03:29:34;101305.06;;;7.67;17.82
54122;BME280;40029;58.708;50.190;2023-04-19T03:32:24;101321.47;;;7.80;17.45
54122;BME280;40029;58.708;50.190;2023-04-19T03:34:56;101274.81;;;7.62;17.56
54122;BME280;40029;58.708;50.190;2023-04-19T03:37:27;101317.13;;;7.96;17.60
54122;BME280;40029;58.708;50.190;2023-04-19T03:40:17;101265.28;;;7.78;17.50
54122;BME280;40029;58.708;50.190;2023-04-19T03:42:48;101279.91;;;8.00;17.24
54122;BME280;40029;58.708;50.190;2023-04-19T03:45:40;101306.69;;;8.16;17.63
54122;BME280;40029;58.708;50.190;2023-04-19T03:48:12;101327.41;;;8.39;17.47
54122;BME280;40029;58.708;50.190;2023-04-19T03:51:02;101272.03;;;8.18;17.34
54122;BME280;40029;58.708;50.190;2023-04-19T03:53:35;101263.34;;;8.24;17.30
54122;BME280;40029;58.708;50.190;2023-04-19T03:56:24;101262.47;;;8.30;17.41
54122;BME280;40029;58.708;50.190;2023-04-19T03:58:56;101303.00;;;8.69;17.17
54122;BME280;40029;58.708;50.190;2023-04-19T04:01:28;101261.53;;;8.50;17.22
54122;BME280;40029;58.708;50.190;2023-04-19T04:04:00;101324.56;;;8.85;17.30
54122;BME280;40029;58.708;50.190;2023-04-19T04:06:31;101317.56;;;8.96;16.94
54122;BME280;40029;58.708;50.190;2023-04-19T04:09:03;101240.69;;;8.61;17.51
54122;BME280;40029;58.708;50.190;2023-04-19T04:11:34;101274.25;;;8.95;17.42
54122;BME280;40029;58.708;50.190;2023-04-19T04:14:06;101272.41;;;9.08;17.41
54122;BME280;40029;58.708;50.190;2023-04-19T04:16:41;101273.19;;;9.19;17.14
54122;BME280;40029;58.708;50.190;2023-04-19T04:19:12;101236.91;;;9.04;17.08
54122;BME280;40029;58.708;50.190;2023-04-19T04:21:45;101269.59;;;9.34;16.95
54122;BME280;40029;58.708;50.190;2023-04-19T04:24:17;101307.41;;;9.68;17.00
54122;BME280;40029;58.708;50.190;2023-04-19T04:27:10;101323.66;;;9.93;16.77
54122;BME280;40029;58.708;50.190;2023-04-19T04:29:43;101283.09;;;9.72;16.36
54122;BME280;40029;58.708;50.190;2023-04-19T04:32:16;101307.06;;;10.02;16.77
54122;BME280;40029;58.708;50.190;2023-04-19T04:34:48;101322.56;;;10.14;16.82
54122;BME280;40029;58.708;50.190;2023-04-19T04:37:38;101325.94;;;10.25;16.50
54122;BME280;40029;58.708;50.190;2023-04-19T04:40:10;101286.16;;;10.10;16.39
54122;BME280;40029;58.708;50.190;2023-04-19T04:42:41;101281.72;;;10.18;16.14
54122;BME280;40029;58.708;50.190;2023-04-19T04:45:15;101320.44;;;10.48;16.41
54122;BME280;40029;58.708;50.190;2023-04-19T04:47:49;101336.69;;;10.69;15.74
54122;BME280;40029;58.708;50.190;2023-04-19T04:50:21;101281.28;;;10.53;16.17
54122;BME280;40029;58.708;50.190;2023-04-19T04:52:54;101280.28;;;10.66;16.36
54122;BME280;40029;58.708;50.190;2023-04-19T04:55:30;101335.25;;;11.08;16.07
54122;BME280;40029;58.708;50.190;2023-04-19T04:58:20;101290.25;;;10.97;15.58
54122;BME280;40029;58.708;50.190;2023-04-19T05:01:10;101285.78;;;11.05;15.73
54122;BME280;40029;58.708;50.190;2023-04-19T05:03:44;101302.16;;;11.12;15.17
54122;BME280;40029;58.708;50.190;2023-04-19T05:06:21;101335.53;;;11.47;15.11
54122;BME280;40029;58.708;50.190;2023-04-19T05:08:53;101298.34;;;11.33;15.56
54122;BME280;40029;58.708;50.190;2023-04-19T05:11:33;101309.38;;;11.50;15.15
54122;BME280;40029;58.708;50.190;2023-04-19T05:14:04;101321.19;;;11.71;15.63
54122;BME280;40029;58.708;50.190;2023-04-19T05:16:38;101293.41;;;11.67;15.68
54122;BME280;40029;58.708;50.190;2023-04-19T05:19:09;101302.75;;;11.80;15.40
54122;BME280;40029;58.708;50.190;2023-04-19T05:21:50;101301.97;;;11.75;14.56
54122;BME280;40029;58.708;50.190;2023-04-19T05:24:21;101335.72;;;11.87;14.74
54122;BME280;40029;58.708;50.190;2023-04-19T05:26:53;101333.72;;;12.01;14.59
54122;BME280;40029;58.708;50.190;2023-04-19T05:29:24;101309.25;;;12.07;14.93
54122;BME280;40029;58.708;50.190;2023-04-19T05:32:14;101301.25;;;12.13;13.82
54122;BME280;40029;58.708;50.190;2023-04-19T05:34:54;101330.34;;;12.40;14.86
54122;BME280;40029;58.708;50.190;2023-04-19T05:37:27;101322.50;;;12.41;14.32
54122;BME280;40029;58.708;50.190;2023-04-19T05:39:58;101322.34;;;12.49;13.94
54122;BME280;40029;58.708;50.190;2023-04-19T05:42:30;101335.84;;;12.68;13.59
54122;BME280;40029;58.708;50.190;2023-04-19T05:45:01;101343.44;;;12.80;13.78
54122;BME280;40029;58.708;50.190;2023-04-19T05:47:50;101332.91;;;12.83;13.71
54122;BME280;40029;58.708;50.190;2023-04-19T05:50:56;101344.13;;;12.88;13.90
54122;BME280;40029;58.708;50.190;2023-04-19T05:53:46;101289.78;;;12.62;13.79
54122;BME280;40029;58.708;50.190;2023-04-19T05:56:17;101343.00;;;13.00;13.92
54122;BME280;40029;58.708;50.190;2023-04-19T05:58:48;101335.16;;;12.98;13.50
54122;BME280;40029;58.708;50.190;2023-04-19T06:01:19;101287.66;;;12.80;13.07
54122;BME280;40029;58.708;50.190;2023-04-19T06:03:51;101332.22;;;13.14;13.37
54122;BME280;40029;58.708;50.190;2023-04-19T06:06:24;101305.47;;;13.01;13.61
54122;BME280;40029;58.708;50.190;2023-04-19T06:08:55;101340.50;;;13.33;13.44
54122;BME280;40029;58.708;50.190;2023-04-19T06:11:26;101349.31;;;13.30;13.15
54122;BME280;40029;58.708;50.190;2023-04-19T06:13:57;101356.81;;;13.44;13.02
54122;BME280;40029;58.708;50.190;2023-04-19T06:16:29;101339.22;;;13.49;13.07
54122;BME280;40029;58.708;50.190;2023-04-19T06:19:00;101346.06;;;13.55;13.04
54122;BME280;40029;58.708;50.190;2023-04-19T06:21:32;101341.53;;;13.61;12.89
54122;BME280;40029;58.708;50.190;2023-04-19T06:24:07;101362.75;;;13.85;12.64
54122;BME280;40029;58.708;50.190;2023-04-19T06:26:38;101354.03;;;13.84;12.58
54122;BME280;40029;58.708;50.190;2023-04-19T06:29:10;101348.69;;;13.89;12.16
54122;BME280;40029;58.708;50.190;2023-04-19T06:31:41;101342.19;;;14.04;12.21
54122;BME280;40029;58.708;50.190;2023-04-19T06:34:12;101330.78;;;14.06;11.94
54122;BME280;40029;58.708;50.190;2023-04-19T06:36:43;101342.66;;;14.18;12.34
54122;BME280;40029;58.708;50.190;2023-04-19T06:39:33;101339.03;;;14.23;12.55
54122;BME280;40029;58.708;50.190;2023-04-19T06:42:05;101345.75;;;14.32;12.35
54122;BME280;40029;58.708;50.190;2023-04-19T06:44:37;101298.34;;;14.09;12.31
54122;BME280;40029;58.708;50.190;2023-04-19T06:47:08;101319.63;;;14.29;11.63
54122;BME280;40029;58.708;50.190;2023-04-19T06:49:39;101344.19;;;14.58;11.68
54122;BME280;40029;58.708;50.190;2023-04-19T06:52:10;101255.16;;;14.22;11.61
54122;BME280;40029;58.708;50.190;2023-04-19T06:55:00;101334.53;;;14.88;11.18
54122;BME280;40029;58.708;50.190;2023-04-19T06:57:49;101341.97;;;15.02;11.25
54122;BME280;40029;58.708;50.190;2023-04-19T07:00:21;101322.97;;;14.93;11.07
54122;BME280;40029;58.708;50.190;2023-04-19T07:02:52;101290.72;;;14.90;11.19
54122;BME280;40029;58.708;50.190;2023-04-19T07:05:23;101296.66;;;14.96;10.95
54122;BME280;40029;58.708;50.190;2023-04-19T07:07:55;101340.22;;;15.29;10.87
54122;BME280;40029;58.708;50.190;2023-04-19T07:10:26;101327.09;;;15.29;10.82
54122;BME280;40029;58.708;50.190;2023-04-19T07:12:57;101290.78;;;15.15;10.89
54122;BME280;40029;58.708;50.190;2023-04-19T07:15:28;101286.09;;;15.24;10.69
54122;BME280;40029;58.708;50.190;2023-04-19T07:17:59;101299.72;;;15.36;10.41
54122;BME280;40029;58.708;50.190;2023-04-19T07:20:31;101334.47;;;15.70;10.41
54122;BME280;40029;58.708;50.190;2023-04-19T07:23:02;101333.63;;;15.70;10.68
54122;BME280;40029;58.708;50.190;2023-04-19T07:25:33;101293.06;;;15.52;10.24
54122;BME280;40029;58.708;50.190;2023-04-19T07:28:04;101324.91;;;15.69;10.16
54122;BME280;40029;58.708;50.190;2023-04-19T07:30:35;101275.34;;;15.57;10.31
54122;BME280;40029;58.708;50.190;2023-04-19T07:33:06;101326.69;;;15.94;10.07
54122;BME280;40029;58.708;50.190;2023-04-19T07:35:38;101309.03;;;15.72;10.35
54122;BME280;40029;58.708;50.190;2023-04-19T07:38:10;101285.41;;;15.71;10.01
54122;BME280;40029;58.708;50.190;2023-04-19T07:40:41;101315.25;;;15.95;10.05
54122;BME280;40029;58.708;50.190;2023-04-19T07:43:12;101316.25;;;16.16;9.77
54122;BME280;40029;58.708;50.190;2023-04-19T07:45:43;101280.13;;;15.97;9.79
54122;BME280;40029;58.708;50.190;2023-04-19T07:48:14;101320.03;;;16.32;9.75
54122;BME280;40029;58.708;50.190;2023-04-19T07:50:45;101276.22;;;16.08;9.65
54122;BME280;40029;58.708;50.190;2023-04-19T07:53:16;101322.91;;;16.48;9.39
54122;BME280;40029;58.708;50.190;2023-04-19T07:55:48;101313.59;;;16.63;9.31
54122;BME280;40029;58.708;50.190;2023-04-19T07:58:37;101305.78;;;16.61;9.03
54122;BME280;40029;58.708;50.190;2023-04-19T08:01:09;101313.94;;;16.77;9.01
54122;BME280;40029;58.708;50.190;2023-04-19T08:03:40;101275.84;;;16.64;9.02
54122;BME280;40029;58.708;50.190;2023-04-19T08:06:11;101294.56;;;16.80;8.83
54122;BME280;40029;58.708;50.190;2023-04-19T08:08:44;101274.41;;;16.79;8.77
54122;BME280;40029;58.708;50.190;2023-04-19T08:11:15;101317.22;;;17.06;8.66
54122;BME280;40029;58.708;50.190;2023-04-19T08:14:04;101312.13;;;17.01;8.08
54122;BME280;40029;58.708;50.190;2023-04-19T08:16:36;101275.16;;;16.82;8.27
54122;BME280;40029;58.708;50.190;2023-04-19T08:19:25;101267.31;;;16.81;8.41
54122;BME280;40029;58.708;50.190;2023-04-19T08:21:56;101272.84;;;16.74;8.05
54122;BME280;40029;58.708;50.190;2023-04-19T08:24:27;101288.00;;;16.90;8.26
54122;BME280;40029;58.708;50.190;2023-04-19T08:27:00;101258.97;;;16.69;8.46
54122;BME280;40029;58.708;50.190;2023-04-19T08:29:31;101306.88;;;17.01;8.10
54122;BME280;40029;58.708;50.190;2023-04-19T08:32:04;101294.91;;;17.14;8.00
54122;BME280;40029;58.708;50.190;2023-04-19T08:34:36;101283.88;;;17.27;8.05
54122;BME280;40029;58.708;50.190;2023-04-19T08:37:08;101258.31;;;17.29;8.08
54122;BME280;40029;58.708;50.190;2023-04-19T08:39:39;101268.53;;;17.36;7.11
54122;BME280;40029;58.708;50.190;2023-04-19T08:42:10;101279.41;;;17.49;7.51
54122;BME280;40029;58.708;50.190;2023-04-19T08:44:42;101263.75;;;17.46;7.42
54122;BME280;40029;58.708;50.190;2023-04-19T08:47:15;101284.56;;;17.72;7.03
54122;BME280;40029;58.708;50.190;2023-04-19T08:49:47;101292.00;;;17.83;6.97
54122;BME280;40029;58.708;50.190;2023-04-19T08:52:19;101293.59;;;17.87;6.83
54122;BME280;40029;58.708;50.190;2023-04-19T08:54:53;101254.84;;;17.69;6.98
54122;BME280;40029;58.708;50.190;2023-04-19T08:57:24;101273.31;;;17.89;6.82
54122;BME280;40029;58.708;50.190;2023-04-19T08:59:55;101247.06;;;17.86;6.50
54122;BME280;40029;58.708;50.190;2023-04-19T09:02:27;101269.09;;;18.04;6.46
54122;BME280;40029;58.708;50.190;2023-04-19T09:05:32;101245.03;;;17.93;6.51
54122;BME280;40029;58.708;50.190;2023-04-19T09:08:25;101282.59;;;18.17;6.05
54122;BME280;40029;58.708;50.190;2023-04-19T09:10:59;101235.25;;;17.95;6.52
54122;BME280;40029;58.708;50.190;2023-04-19T09:13:31;101241.31;;;18.16;5.82
54122;BME280;40029;58.708;50.190;2023-04-19T09:16:03;101235.63;;;18.25;5.83
54122;BME280;40029;58.708;50.190;2023-04-19T09:18:52;101230.25;;;18.45;6.35
54122;BME280;40029;58.708;50.190;2023-04-19T09:21:28;101202.81;;;18.31;5.49
54122;BME280;40029;58.708;50.190;2023-04-19T09:24:01;101284.13;;;18.79;5.96
54122;BME280;40029;58.708;50.190;2023-04-19T09:26:54;101235.88;;;18.76;5.25
54122;BME280;40029;58.708;50.190;2023-04-19T09:29:52;101252.06;;;18.87;4.28
54122;BME280;40029;58.708;50.190;2023-04-19T09:32:24;101234.09;;;18.76;5.45
54122;BME280;40029;58.708;50.190;2023-04-19T09:34:58;101259.81;;;18.90;5.04
54122;BME280;40029;58.708;50.190;2023-04-19T09:37:29;101254.88;;;19.01;4.27
54122;BME280;40029;58.708;50.190;2023-04-19T09:40:20;101263.84;;;19.16;3.43
54122;BME280;40029;58.708;50.190;2023-04-19T09:43:10;101261.81;;;19.04;3.78
54122;BME280;40029;58.708;50.190;2023-04-19T09:45:43;101223.03;;;18.87;3.62
54122;BME280;40029;58.708;50.190;2023-04-19T09:48:15;101247.75;;;19.03;3.61
54122;BME280;40029;58.708;50.190;2023-04-19T09:50:57;101234.53;;;19.03;3.99
54122;BME280;40029;58.708;50.190;2023-04-19T09:53:29;101251.25;;;19.21;3.79
54122;BME280;40029;58.708;50.190;2023-04-19T09:56:22;101175.50;;;18.68;3.82
54122;BME280;40029;58.708;50.190;2023-04-19T09:58:53;101246.25;;;19.32;3.90
54122;BME280;40029;58.708;50.190;2023-04-19T10:01:53;101255.34;;;19.44;3.59
54122;BME280;40029;58.708;50.190;2023-04-19T10:04:28;101252.47;;;19.48;2.91
54122;BME280;40029;58.708;50.190;2023-04-19T10:06:59;101235.75;;;19.48;3.03
54122;BME280;40029;58.708;50.190;2023-04-19T10:09:30;101201.97;;;19.37;2.81
54122;BME280;40029;58.708;50.190;2023-04-19T10:12:02;101205.06;;;19.45;2.40
54122;BME280;40029;58.708;50.190;2023-04-19T10:14:35;101216.50;;;19.46;2.35
54122;BME280;40029;58.708;50.190;2023-04-19T10:17:08;101221.16;;;19.58;2.49
54122;BME280;40029;58.708;50.190;2023-04-19T10:19:40;101239.44;;;19.63;2.69
54122;BME280;40029;58.708;50.190;2023-04-19T10:22:13;101202.34;;;19.47;2.54
54122;BME280;40029;58.708;50.190;2023-04-19T10:25:08;101246.75;;;19.91;2.45
54122;BME280;40029;58.708;50.190;2023-04-19T10:27:44;101222.75;;;19.78;2.77
54122;BME280;40029;58.708;50.190;2023-04-19T10:30:20;101195.16;;;19.84;2.53
54122;BME280;40029;58.708;50.190;2023-04-19T10:32:54;101215.03;;;20.07;2.39
54122;BME280;40029;58.708;50.190;2023-04-19T10:35:32;101228.91;;;20.28;2.05
54122;BME280;40029;58.708;50.190;2023-04-19T10:38:09;101214.03;;;20.41;1.60
54122;BME280;40029;58.708;50.190;2023-04-19T10:43:32;101234.03;;;20.62;1.62
54122;BME280;40029;58.708;50.190;2023-04-19T10:46:34;101245.47;;;20.79;1.20
54122;BME280;40029;58.708;50.190;2023-04-19T10:49:00;101194.16;;;20.65;1.31
54122;BME280;40029;58.708;50.190;2023-04-19T10:51:50;101227.78;;;20.79;0.92
54122;BME280;40029;58.708;50.190;2023-04-19T10:54:42;101183.56;;;20.65;1.07
54122;BME280;40029;58.708;50.190;2023-04-19T10:57:13;101225.69;;;21.00;1.20
54122;BME280;40029;58.708;50.190;2023-04-19T11:00:20;101226.09;;;21.38;0.56
54122;BME280;40029;58.708;50.190;2023-04-19T11:02:52;101232.28;;;21.23;0.27
54122;BME280;40029;58.708;50.190;2023-04-19T11:05:23;101178.16;;;20.97;0.43
54122;BME280;40029;58.708;50.190;2023-04-19T11:07:54;101225.25;;;21.08;0.07
54122;BME280;40029;58.708;50.190;2023-04-19T11:10:29;101211.16;;;21.21;0.00
54122;BME280;40029;58.708;50.190;2023-04-19T11:13:01;101181.38;;;21.02;0.00
54122;BME280;40029;58.708;50.190;2023-04-19T11:15:32;101225.25;;;20.62;0.26
54122;BME280;40029;58.708;50.190;2023-04-19T11:18:04;101186.53;;;20.75;0.00
54122;BME280;40029;58.708;50.190;2023-04-19T11:20:35;101203.50;;;20.87;0.08
54122;BME280;40029;58.708;50.190;2023-04-19T11:23:15;101211.00;;;20.94;0.00
54122;BME280;40029;58.708;50.190;2023-04-19T11:25:50;101165.28;;;20.61;0.14
54122;BME280;40029;58.708;50.190;2023-04-19T11:28:22;101181.34;;;20.58;0.01
54122;BME280;40029;58.708;50.190;2023-04-19T11:30:54;101205.22;;;20.72;0.00
54122;BME280;40029;58.708;50.190;2023-04-19T11:33:26;101164.69;;;20.24;0.30
54122;BME280;40029;58.708;50.190;2023-04-19T11:35:58;101172.19;;;20.16;0.28
54122;BME280;40029;58.708;50.190;2023-04-19T11:38:29;101194.38;;;20.29;0.06
54122;BME280;40029;58.708;50.190;2023-04-19T11:41:02;101122.44;;;19.91;0.72
54122;BME280;40029;58.708;50.190;2023-04-19T11:43:37;101199.56;;;20.48;0.72
54122;BME280;40029;58.708;50.190;2023-04-19T11:46:09;101167.34;;;20.40;0.20
54122;BME280;40029;58.708;50.190;2023-04-19T11:48:53;101142.72;;;20.69;0.56
54122;BME280;40029;58.708;50.190;2023-04-19T11:51:25;101170.16;;;21.43;0.08
54122;BME280;40029;58.708;50.190;2023-04-19T11:53:56;101160.84;;;21.93;0.09
54122;BME280;40029;58.708;50.190;2023-04-19T11:56:28;101157.59;;;22.70;0.00
54122;BME280;40029;58.708;50.190;2023-04-19T11:58:59;101170.03;;;23.48;0.00
54122;BME280;40029;58.708;50.190;2023-04-19T12:01:30;101176.78;;;24.16;0.00
54122;BME280;40029;58.708;50.190;2023-04-19T12:04:03;101173.06;;;24.66;0.00
54122;BME280;40029;58.708;50.190;2023-04-19T12:06:34;101146.47;;;24.78;0.00
54122;BME280;40029;58.708;50.190;2023-04-19T12:09:06;101175.09;;;24.87;0.00
54122;BME280;40029;58.708;50.190;2023-04-19T12:11:59;101134.34;;;25.09;0.00
54122;BME280;40029;58.708;50.190;2023-04-19T12:14:32;101158.16;;;25.68;0.00
54122;BME280;40029;58.708;50.190;2023-04-19T12:17:10;101168.00;;;25.90;0.00
54122;BME280;40029;58.708;50.190;2023-04-19T12:19:45;101158.38;;;26.21;0.00
54122;BME280;40029;58.708;50.190;2023-04-19T12:22:18;101129.91;;;25.77;0.00
54122;BME280;40029;58.708;50.190;2023-04-19T12:24:56;101157.91;;;26.05;0.00
54122;BME280;40029;58.708;50.190;2023-04-19T12:27:28;101130.97;;;25.85;0.00
54122;BME280;40029;58.708;50.190;2023-04-19T12:30:17;101160.50;;;25.84;0.00
54122;BME280;40029;58.708;50.190;2023-04-19T12:32:48;101114.22;;;25.61;0.00
54122;BME280;40029;58.708;50.190;2023-04-19T12:35:39;101115.22;;;25.71;0.00
54122;BME280;40029;58.708;50.190;2023-04-19T12:38:10;101102.84;;;25.25;0.00
54122;BME280;40029;58.708;50.190;2023-04-19T12:40:41;101138.13;;;25.29;0.00
54122;BME280;40029;58.708;50.190;2023-04-19T12:43:13;101151.22;;;25.43;0.00
54122;BME280;40029;58.708;50.190;2023-04-19T12:45:44;101124.19;;;24.79;0.00
54122;BME280;40029;58.708;50.190;2023-04-19T12:48:15;101113.66;;;24.53;0.00
54122;BME280;40029;58.708;50.190;2023-04-19T12:50:46;101078.69;;;24.58;0.00
54122;BME280;40029;58.708;50.190;2023-04-19T12:53:17;101116.13;;;24.67;0.00
54122;BME280;40029;58.708;50.190;2023-04-19T12:55:49;101116.41;;;24.76;0.00
54122;BME280;40029;58.708;50.190;2023-04-19T12:58:21;101141.59;;;25.07;0.00
54122;BME280;40029;58.708;50.190;2023-04-19T13:00:53;101116.13;;;24.67;0.00
54122;BME280;40029;58.708;50.190;2023-04-19T13:03:25;101139.25;;;24.91;0.00
54122;BME280;40029;58.708;50.190;2023-04-19T13:05:56;101155.63;;;24.62;0.00
54122;BME280;40029;58.708;50.190;2023-04-19T13:08:27;101108.59;;;23.89;0.00
54122;BME280;40029;58.708;50.190;2023-04-19T13:11:17;101152.63;;;24.06;0.00
54122;BME280;40029;58.708;50.190;2023-04-19T13:14:11;101145.97;;;23.88;0.00
54122;BME280;40029;58.708;50.190;2023-04-19T13:16:42;101102.59;;;23.62;0.00
54122;BME280;40029;58.708;50.190;2023-04-19T13:19:13;101102.03;;;23.57;0.00
54122;BME280;40029;58.708;50.190;2023-04-19T13:21:44;101140.47;;;23.65;0.00
54122;BME280;40029;58.708;50.190;2023-04-19T13:24:16;101110.78;;;23.46;0.00
54122;BME280;40029;58.708;50.190;2023-04-19T13:26:47;101108.78;;;22.99;0.00
54122;BME280;40029;58.708;50.190;2023-04-19T13:29:18;101135.06;;;22.76;0.00
54122;BME280;40029;58.708;50.190;2023-04-19T13:31:49;101144.69;;;22.25;0.00